EmailTwitter


Observations de surface / Royaume-Uni / EGLL (03772)

Régions: Québec | Canada | États-Unis | Europe | France | UK | Ailleurs
Station
Affichage
Infos & localisation pour EGLL (03772) | Aide pour décoder les METARs

Observations prises le 2018-11-16 à 09H50 UTC à LONDON/HEATHROW, UK (EGLL)

Etat du ciel: couvert.

Obstacle(s) à la visibilité: brume.

Température: 11.0 Celsius

Point de rosée: 10.0 Celsius

Humidité relative: 94%

Vents: Est à 9 km/h ou 5 noeuds.

Pression au niveau moyen de la mer: 102.60 kilopascals.

Visibilité horizontale: 2.49 milles terrestres ou 3.98 kilomètres.

Hauteur du plafond: 213 mètres ( 700 pieds ).

Observation METAR:

EGLL 160950Z 09005KT 4000 BR SCT004 BKN007 OVC010 11/10 Q1026 BECMG 5000=